Green Valley, AZ (85614)

12:40 AM MST on January 21, 2017 (GMT -0700)
La Canada Desert Homes I | | Change Station
Active Advisory: Wind Advisory

Elev 2930 ft 31.86 °N, 111.00 °W | Updated 19 seconds ago

Rain
Rain
47.7 °F
Feels Like 48 °F
N
3.0
Wind Variable Wind from SW

Today
High -- | Low -- °F
--% Chance of Precip.
Yesterday
High -- | Low -- °F
Precip. -- in
Pressure 29.52 in
Visibility 10.0 miles
Clouds Few 4000 ft
Overcast 7000 ft
Windchill 48 °F
Dew Point 46 °F
Humidity 96%
Rainfall 0.05 in
Snow Depth Not available.
7:22 AM 5:48 PM
Last Quarter, 37% visible
METAR KTUS 210653Z 19016G21KT 10SM FEW040 OVC070 10/07 A2958 RMK AO2 RAB19E29 SLP997 P0000 T01000067 401390094
Pressure 29.52 in
Visibility 10.0 miles
Clouds Few 4000 ft
Overcast 7000 ft
Windchill 48 °F
Dew Point 46 °F
Humidity 96%
Rainfall 0.05 in
Snow Depth Not available.
7:22 AM 5:48 PM
Last Quarter, 37% visible
METAR KTUS 210653Z 19016G21KT 10SM FEW040 OVC070 10/07 A2958 RMK AO2 RAB19E29 SLP997 P0000 T01000067 401390094

Get Your Daily Forecast Email!

Thanks for signing up!

Be on the lookout for a verification email in your inbox.

You'll start receiving the daily forecast at 8 AM.

×

10-Day Weather Forecast

Almanac

Astronomy

Jan. 21, 2017 Rise Set
Actual Time
Civil Twilight
Nautical Twilight
Astronomical Twilight
Moon
Length of Visible Light
Length of Day
Tomorrow will be .
, % of the Moon is Illuminated

Today's Extremes

State Highs State Lows

Community

WunderPhotos

Upload Photos

1,962,540 photos uploaded!

WunderBlog® & News

Nearby

Air Quality

  Air Quality AQ Index Pollutant
Not available.

Snow Depth

Station Depth Elevation

Earthquake Activity

City Distance Mag. Time & Date
Minimum magnitude displayed is 2.5.

Coastal Water Temperatures

Place Temperature

Stations

Nearby Weather Stations

Station Location Temp. Windchill Dew Point Humidity Wind Precip. Elev Updated Type
                   

Watches & Warnings

Wind Advisory
Issued: 10:23 PM MST Jan. 20, 2017 – National Weather Service

... Wind Advisory remains in effect until 8 am MST Saturday...

* impacts... high profile vehicles will be affected by the strong
gusty winds. Loose and unsecured outdoor objects may also be
blown away.

* Timing... peaking during the overnight hours into Saturday
morning... before diminishing after sunrise on Saturday.

* Winds... southwest wind 25 to 35 mph with gusts up to 50 mph
tonight... becoming west and diminishing Saturday morning.

* For a detailed view of the hazard area... visit
weather.Gov/Tucson and click on the detailed hazards tab

Precautionary/preparedness actions...

A Wind Advisory means that sustained winds of 30 mph or greater
are expected in the valleys... or 35 mph or greater above 5000
feet. Higher gusts are also likely. This could make driving
difficult... especially for high profile vehicles. Use extra caution.